createdAt,value
2023-01-28T00:02:01.522Z,1.60
2023-01-28T00:04:29.441Z,1.70
2023-01-28T00:06:57.358Z,1.67
2023-01-28T00:09:25.293Z,1.80
2023-01-28T00:11:53.189Z,1.73
2023-01-28T00:14:22.433Z,1.70
2023-01-28T00:16:50.327Z,1.70
2023-01-28T00:19:18.254Z,1.80
2023-01-28T00:21:46.133Z,1.73
2023-01-28T00:24:14.083Z,1.80
2023-01-28T00:26:42.225Z,1.70
2023-01-28T00:29:10.131Z,1.60
2023-01-28T00:31:41.269Z,1.80
2023-01-28T00:34:09.808Z,1.80
2023-01-28T00:36:39.203Z,2.07
2023-01-28T00:39:07.218Z,1.93
2023-01-28T00:41:36.121Z,1.70
2023-01-28T00:44:04.105Z,1.73
2023-01-28T00:46:32.049Z,1.80
2023-01-28T00:49:01.695Z,2.00
2023-01-28T00:51:29.587Z,1.80
2023-01-28T00:53:57.513Z,1.83
2023-01-28T00:56:25.439Z,1.90
2023-01-28T00:58:54.172Z,1.70
2023-01-28T01:01:23.744Z,1.83
2023-01-28T01:03:57.625Z,1.70
2023-01-28T01:06:27.000Z,1.90
2023-01-28T01:08:54.900Z,1.80
2023-01-28T01:11:22.767Z,1.77
2023-01-28T01:13:54.929Z,1.80
2023-01-28T01:16:26.664Z,2.00
2023-01-28T01:18:54.607Z,1.73
2023-01-28T01:21:23.364Z,1.80
2023-01-28T01:23:52.744Z,1.80
2023-01-28T01:26:20.704Z,1.70
2023-01-28T01:28:49.040Z,1.63
2023-01-28T01:31:17.911Z,1.87
2023-01-28T01:33:46.533Z,1.70
2023-01-28T01:36:15.004Z,1.90
2023-01-28T01:38:42.860Z,1.80
2023-01-28T01:41:18.250Z,1.60
2023-01-28T01:43:48.308Z,1.70
2023-01-28T01:46:16.931Z,1.77
2023-01-28T01:48:45.490Z,1.83
2023-01-28T01:51:15.168Z,1.60
2023-01-28T01:53:45.084Z,1.80
2023-01-28T01:56:16.850Z,1.90
2023-01-28T01:58:45.741Z,1.70
2023-01-28T02:01:13.706Z,1.63
2023-01-28T02:03:47.846Z,2.03
2023-01-28T02:06:17.460Z,1.70
2023-01-28T02:08:45.510Z,1.90
2023-01-28T02:11:14.700Z,1.60
2023-01-28T02:13:46.300Z,1.93
2023-01-28T02:16:14.617Z,1.80
2023-01-28T02:18:42.497Z,1.80
2023-01-28T02:21:38.548Z,2.00
2023-01-28T02:24:17.083Z,1.90
2023-01-28T02:26:57.615Z,1.50
2023-01-28T02:29:28.176Z,1.67
2023-01-28T02:32:02.698Z,1.60
2023-01-28T02:34:35.229Z,1.83
2023-01-28T02:37:05.642Z,1.70
2023-01-28T02:39:34.733Z,1.57
2023-01-28T02:42:05.377Z,1.60
2023-01-28T02:44:35.782Z,1.80
2023-01-28T02:47:21.226Z,1.90
2023-01-28T02:49:50.555Z,1.70
2023-01-28T02:52:48.149Z,1.70
2023-01-28T02:55:24.430Z,1.50
2023-01-28T02:57:58.858Z,1.53
2023-01-28T03:00:29.611Z,1.73
2023-01-28T03:03:00.120Z,1.80
2023-01-28T03:05:29.581Z,1.60
2023-01-28T03:07:57.470Z,1.70
2023-01-28T03:10:25.834Z,1.60
2023-01-28T03:13:13.538Z,1.80
2023-01-28T03:16:01.628Z,1.57
2023-01-28T03:18:48.948Z,1.70
2023-01-28T03:21:36.034Z,1.43
2023-01-28T03:24:24.138Z,1.50
2023-01-28T03:27:13.363Z,1.60
2023-01-28T03:30:00.227Z,1.60
2023-01-28T03:32:46.986Z,1.70
2023-01-28T03:35:33.831Z,1.80
2023-01-28T03:38:01.708Z,1.47
2023-01-28T03:40:29.877Z,1.70
2023-01-28T03:42:57.788Z,1.50
2023-01-28T03:45:35.815Z,1.50
2023-01-28T03:48:07.204Z,1.50
2023-01-28T03:50:35.228Z,1.50
2023-01-28T03:53:16.393Z,1.60
2023-01-28T03:55:52.732Z,1.30
2023-01-28T03:58:20.917Z,1.60
2023-01-28T04:00:48.854Z,1.77
2023-01-28T04:03:18.901Z,1.43
2023-01-28T04:05:59.771Z,1.40
2023-01-28T04:08:35.457Z,1.57
2023-01-28T04:11:27.084Z,1.30
2023-01-28T04:13:56.817Z,1.40
2023-01-28T04:16:26.796Z,1.37
2023-01-28T04:18:57.864Z,1.40
2023-01-28T04:21:26.257Z,1.57
2023-01-28T04:23:54.217Z,1.60
2023-01-28T04:26:22.133Z,1.70
2023-01-28T04:28:50.049Z,1.60
2023-01-28T04:31:18.038Z,1.47
2023-01-28T04:34:12.205Z,1.40
2023-01-28T04:36:55.286Z,1.43
2023-01-28T04:39:45.163Z,1.50
2023-01-28T04:42:38.053Z,1.40
2023-01-28T04:45:11.929Z,1.40
2023-01-28T04:47:52.673Z,1.40
2023-01-28T04:50:48.187Z,1.40
2023-01-28T04:53:42.140Z,1.30
2023-01-28T04:56:25.367Z,1.20
2023-01-28T04:58:53.315Z,1.30
2023-01-28T05:01:21.277Z,1.30
2023-01-28T05:03:49.385Z,1.50
2023-01-28T05:06:26.397Z,1.40
2023-01-28T05:09:16.764Z,1.40
2023-01-28T05:11:45.208Z,1.30
2023-01-28T05:14:14.500Z,1.30
2023-01-28T05:16:49.235Z,1.30
2023-01-28T05:19:18.331Z,1.50
2023-01-28T05:21:50.645Z,1.60
2023-01-28T05:24:33.208Z,1.30
2023-01-28T05:27:01.238Z,1.20
2023-01-28T05:29:29.218Z,1.43
2023-01-28T05:31:57.170Z,1.20
2023-01-28T05:34:25.248Z,1.30
2023-01-28T05:36:55.221Z,1.30
2023-01-28T05:39:31.361Z,1.20
2023-01-28T05:41:59.439Z,1.10
2023-01-28T05:44:27.564Z,1.10
2023-01-28T05:47:04.958Z,1.20
2023-01-28T05:49:51.497Z,1.27
2023-01-28T05:52:38.636Z,1.30
2023-01-28T05:55:11.241Z,1.37
2023-01-28T05:57:39.258Z,1.40
2023-01-28T06:00:10.409Z,1.30
2023-01-28T06:02:45.600Z,1.20
2023-01-28T06:05:16.083Z,1.13
2023-01-28T06:07:47.151Z,1.07
2023-01-28T06:10:17.960Z,1.23
2023-01-28T06:12:46.242Z,0.97
2023-01-28T06:15:40.100Z,1.20
2023-01-28T06:18:43.190Z,1.30
2023-01-28T06:21:11.083Z,1.00
2023-01-28T06:23:40.696Z,0.97
2023-01-28T06:26:11.115Z,1.07
2023-01-28T06:28:42.208Z,1.40
2023-01-28T06:31:10.237Z,1.00
2023-01-28T06:33:38.152Z,1.10
2023-01-28T06:36:06.721Z,1.37
2023-01-28T06:38:35.058Z,1.00
2023-01-28T06:41:04.397Z,1.20
2023-01-28T06:43:32.267Z,1.13
2023-01-28T06:46:00.205Z,1.23
2023-01-28T06:48:28.695Z,1.00
2023-01-28T06:50:56.722Z,1.10
2023-01-28T06:53:24.638Z,1.07
2023-01-28T06:55:52.550Z,1.13
2023-01-28T06:58:21.739Z,1.00
2023-01-28T07:00:49.653Z,1.20
2023-01-28T07:03:17.595Z,1.00
2023-01-28T07:05:45.489Z,1.20
2023-01-28T07:08:13.351Z,0.90
2023-01-28T07:10:41.245Z,1.30
2023-01-28T07:13:09.186Z,1.00
2023-01-28T07:15:38.475Z,1.00
2023-01-28T07:18:06.417Z,1.00
2023-01-28T07:20:35.120Z,1.30
2023-01-28T07:23:03.048Z,0.90
2023-01-28T07:25:31.587Z,1.00
2023-01-28T07:27:59.542Z,1.10
2023-01-28T07:30:27.559Z,1.10
2023-01-28T07:32:56.857Z,1.13
2023-01-28T07:35:24.887Z,1.20
2023-01-28T07:37:54.237Z,1.17
2023-01-28T07:40:22.326Z,0.90
2023-01-28T07:42:50.241Z,1.10
2023-01-28T07:45:23.435Z,1.60
2023-01-28T07:47:59.911Z,1.27
2023-01-28T07:50:29.064Z,0.80
2023-01-28T07:52:57.086Z,1.10
2023-01-28T07:55:25.117Z,0.97
2023-01-28T07:57:53.471Z,1.00
2023-01-28T08:00:21.969Z,0.90
2023-01-28T08:02:49.881Z,1.00
2023-01-28T08:05:20.134Z,1.03
2023-01-28T08:07:49.386Z,1.10
2023-01-28T08:10:17.971Z,1.00
2023-01-28T08:12:52.909Z,1.23
2023-01-28T08:15:20.824Z,1.00
2023-01-28T08:17:48.757Z,1.00
2023-01-28T08:20:17.437Z,0.83
2023-01-28T08:22:46.852Z,0.90
2023-01-28T08:25:14.800Z,1.07
2023-01-28T08:27:42.734Z,0.90
2023-01-28T08:30:11.816Z,0.93
2023-01-28T08:32:39.789Z,1.10
2023-01-28T08:35:08.656Z,1.03
2023-01-28T08:37:36.659Z,1.07
2023-01-28T08:40:07.235Z,0.90
2023-01-28T08:42:35.155Z,1.00
2023-01-28T08:45:03.357Z,0.90
2023-01-28T08:47:31.237Z,1.00
2023-01-28T08:49:59.158Z,0.87
2023-01-28T08:52:27.073Z,1.00
2023-01-28T08:54:55.002Z,1.10
2023-01-28T08:57:24.281Z,0.93
2023-01-28T08:59:52.213Z,0.93
2023-01-28T09:02:31.163Z,0.90
2023-01-28T09:05:00.036Z,1.10
2023-01-28T09:07:27.909Z,1.00
2023-01-28T09:09:55.787Z,1.23
2023-01-28T09:12:25.124Z,1.03
2023-01-28T09:14:53.159Z,1.00
2023-01-28T09:17:21.155Z,1.00
2023-01-28T09:19:49.077Z,1.10
2023-01-28T09:22:16.953Z,0.90
2023-01-28T09:24:44.896Z,0.80
2023-01-28T09:27:12.928Z,0.97
2023-01-28T09:29:42.207Z,1.03
2023-01-28T09:32:10.158Z,1.10
2023-01-28T09:34:39.118Z,0.97
2023-01-28T09:37:07.011Z,0.90
2023-01-28T09:39:34.945Z,0.97
2023-01-28T09:42:13.087Z,0.80
2023-01-28T09:44:54.598Z,0.90
2023-01-28T09:47:25.192Z,0.80
2023-01-28T09:49:53.769Z,0.80
2023-01-28T09:52:23.109Z,0.87
2023-01-28T09:54:53.004Z,0.90
2023-01-28T09:57:22.662Z,0.80
2023-01-28T09:59:51.953Z,0.90
2023-01-28T10:02:36.205Z,0.93
2023-01-28T10:05:08.872Z,1.00
2023-01-28T10:07:40.591Z,0.90
2023-01-28T10:10:11.436Z,0.90
2023-01-28T10:13:00.106Z,1.00
2023-01-28T10:15:39.718Z,0.97
2023-01-28T10:18:17.288Z,1.07
2023-01-28T10:20:48.073Z,1.07
2023-01-28T10:23:17.480Z,1.53
2023-01-28T10:25:47.363Z,0.90
2023-01-28T10:28:19.958Z,2.43
2023-01-28T10:30:49.524Z,1.13
2023-01-28T10:33:20.276Z,1.00
2023-01-28T10:35:49.039Z,1.17
2023-01-28T10:38:18.451Z,0.90
2023-01-28T10:40:47.987Z,0.97
2023-01-28T10:43:17.274Z,1.20
2023-01-28T10:45:50.378Z,1.10
2023-01-28T10:48:21.015Z,1.00
2023-01-28T10:50:52.456Z,1.20
2023-01-28T10:53:20.685Z,1.50
2023-01-28T10:55:51.197Z,1.20
2023-01-28T10:58:20.714Z,1.00
2023-01-28T11:00:53.520Z,2.10
2023-01-28T11:03:21.538Z,1.27
2023-01-28T11:05:52.650Z,1.10
2023-01-28T11:08:20.839Z,1.33
2023-01-28T11:10:48.908Z,1.23
2023-01-28T11:13:21.232Z,1.03
2023-01-28T11:15:51.525Z,3.70
2023-01-28T11:18:22.608Z,1.03
2023-01-28T11:20:52.623Z,3.77
2023-01-28T11:23:22.909Z,1.27
2023-01-28T11:25:50.924Z,3.10
2023-01-28T11:28:19.752Z,1.00
2023-01-28T11:30:52.846Z,0.90
2023-01-28T11:33:21.861Z,0.97
2023-01-28T11:35:55.967Z,0.77
2023-01-28T11:38:24.762Z,0.90
2023-01-28T11:40:53.487Z,1.20
2023-01-28T11:43:21.758Z,1.00
2023-01-28T11:45:53.598Z,1.00
2023-01-28T11:48:28.059Z,1.07
2023-01-28T11:50:58.718Z,0.97
2023-01-28T11:53:40.514Z,1.00
2023-01-28T11:56:19.772Z,1.00
2023-01-28T11:58:50.943Z,1.00
2023-01-28T12:01:23.097Z,1.03
2023-01-28T12:04:12.804Z,0.80
2023-01-28T12:06:48.140Z,0.90
2023-01-28T12:09:20.563Z,0.87
2023-01-28T12:12:15.002Z,0.80
2023-01-28T12:15:04.883Z,0.80
2023-01-28T12:17:48.220Z,0.73
2023-01-28T12:20:20.105Z,0.90
2023-01-28T12:23:01.144Z,1.17
2023-01-28T12:25:38.526Z,1.07
2023-01-28T12:28:10.042Z,0.90
2023-01-28T12:30:55.999Z,1.07
2023-01-28T12:33:48.851Z,0.90
2023-01-28T12:36:24.085Z,0.83
2023-01-28T12:38:57.434Z,0.90
2023-01-28T12:41:27.105Z,0.70
2023-01-28T12:43:57.633Z,0.80
2023-01-28T12:46:34.462Z,0.90
2023-01-28T12:49:05.757Z,0.90
2023-01-28T12:51:35.749Z,0.93
2023-01-28T12:54:05.720Z,0.90
2023-01-28T12:56:35.096Z,0.90
2023-01-28T12:59:06.043Z,1.10
2023-01-28T13:01:38.285Z,0.90
2023-01-28T13:04:10.264Z,0.80
2023-01-28T13:06:40.898Z,0.90
2023-01-28T13:09:14.919Z,0.80
2023-01-28T13:11:42.890Z,0.90
2023-01-28T13:14:10.858Z,1.07
2023-01-28T13:16:39.033Z,0.80
2023-01-28T13:19:23.453Z,0.90
2023-01-28T13:21:51.362Z,1.07
2023-01-28T13:24:24.753Z,0.83
2023-01-28T13:26:53.330Z,0.90
2023-01-28T13:29:30.416Z,1.10
2023-01-28T13:31:59.428Z,0.90
2023-01-28T13:34:36.507Z,0.90
2023-01-28T13:37:06.416Z,1.00
2023-01-28T13:39:35.482Z,0.90
2023-01-28T13:42:22.556Z,0.90
2023-01-28T13:44:50.581Z,0.97
2023-01-28T13:47:27.808Z,1.07
2023-01-28T13:49:59.127Z,0.90
2023-01-28T13:52:29.441Z,1.10
2023-01-28T13:55:00.179Z,1.00
2023-01-28T13:57:45.623Z,1.20
2023-01-28T14:00:21.136Z,1.00
2023-01-28T14:03:02.762Z,0.80
2023-01-28T14:05:56.098Z,0.90
2023-01-28T14:08:53.945Z,0.90
2023-01-28T14:11:50.710Z,1.00
2023-01-28T14:14:27.522Z,1.10
2023-01-28T14:16:56.918Z,1.00
2023-01-28T14:19:27.913Z,1.10
2023-01-28T14:21:57.356Z,1.10
2023-01-28T14:24:25.655Z,1.00
2023-01-28T14:26:59.300Z,0.90
2023-01-28T14:29:34.324Z,1.00
2023-01-28T14:32:06.051Z,1.00
2023-01-28T14:34:34.643Z,0.90
2023-01-28T14:37:07.104Z,0.90
2023-01-28T14:39:41.047Z,0.80
2023-01-28T14:42:14.327Z,0.90
2023-01-28T14:44:42.241Z,0.93
2023-01-28T14:47:32.897Z,0.80
2023-01-28T14:50:19.295Z,0.93
2023-01-28T14:53:16.866Z,1.10
2023-01-28T14:55:48.231Z,0.90
2023-01-28T14:58:17.354Z,0.93
2023-01-28T15:00:54.446Z,0.90
2023-01-28T15:03:25.261Z,0.90
2023-01-28T15:06:04.025Z,1.00
2023-01-28T15:08:33.437Z,1.00
2023-01-28T15:11:01.517Z,1.10
2023-01-28T15:13:30.505Z,1.00
2023-01-28T15:16:00.607Z,0.80
2023-01-28T15:18:31.420Z,1.00
2023-01-28T15:20:59.308Z,0.90
2023-01-28T15:23:28.358Z,0.90
2023-01-28T15:25:57.987Z,1.00
2023-01-28T15:28:27.964Z,1.00
2023-01-28T15:30:55.980Z,1.00
2023-01-28T15:33:24.248Z,0.77
2023-01-28T15:35:52.701Z,0.87
2023-01-28T15:38:20.674Z,0.90
2023-01-28T15:40:50.122Z,0.80
2023-01-28T15:43:20.818Z,0.80
2023-01-28T15:45:49.062Z,0.90
2023-01-28T15:48:16.960Z,0.80
2023-01-28T15:50:45.587Z,0.87
2023-01-28T15:53:14.234Z,0.73
2023-01-28T15:55:42.933Z,0.80
2023-01-28T15:58:18.237Z,1.00
2023-01-28T16:00:47.643Z,0.80
2023-01-28T16:03:20.625Z,1.00
2023-01-28T16:05:59.597Z,1.00
2023-01-28T16:08:29.722Z,0.90
2023-01-28T16:10:57.846Z,0.70
2023-01-28T16:13:26.505Z,0.90
2023-01-28T16:15:56.294Z,0.90
2023-01-28T16:18:30.588Z,0.70
2023-01-28T16:20:58.881Z,0.90
2023-01-28T16:23:28.108Z,0.80
2023-01-28T16:26:02.355Z,1.00
2023-01-28T16:28:30.791Z,0.90
2023-01-28T16:31:00.182Z,0.70
2023-01-28T16:33:28.423Z,0.93
2023-01-28T16:36:07.699Z,0.70
2023-01-28T16:38:36.069Z,0.90
2023-01-28T16:41:03.965Z,0.90
2023-01-28T16:43:31.894Z,1.00
2023-01-28T16:46:01.153Z,0.80
2023-01-28T16:48:30.446Z,0.90
2023-01-28T16:50:58.347Z,0.90
2023-01-28T16:53:28.670Z,0.90
2023-01-28T16:55:56.714Z,0.70
2023-01-28T16:58:26.417Z,0.83
2023-01-28T17:00:54.511Z,0.80
2023-01-28T17:03:24.170Z,0.90
2023-01-28T17:05:52.124Z,1.13
2023-01-28T17:08:20.148Z,1.17
2023-01-28T17:10:53.009Z,0.90
2023-01-28T17:13:20.925Z,1.00
2023-01-28T17:15:48.818Z,0.90
2023-01-28T17:18:16.731Z,0.80
2023-01-28T17:20:45.982Z,0.70
2023-01-28T17:23:15.791Z,1.00
2023-01-28T17:25:43.863Z,0.80
2023-01-28T17:28:12.101Z,1.00
2023-01-28T17:30:41.434Z,1.00
2023-01-28T17:33:09.626Z,0.93
2023-01-28T17:35:37.511Z,0.80
2023-01-28T17:38:06.800Z,0.80
2023-01-28T17:40:34.722Z,0.70
2023-01-28T17:43:02.634Z,0.90
2023-01-28T17:45:31.752Z,0.93
2023-01-28T17:47:59.661Z,0.80
2023-01-28T17:50:27.576Z,0.90
2023-01-28T17:52:55.913Z,1.00
2023-01-28T17:55:25.304Z,0.90
2023-01-28T17:57:53.197Z,0.80
2023-01-28T18:00:22.391Z,0.90
2023-01-28T18:02:51.170Z,0.87
2023-01-28T18:05:19.177Z,0.90
2023-01-28T18:07:47.090Z,1.00
2023-01-28T18:10:14.969Z,0.90
2023-01-28T18:12:44.271Z,0.90
2023-01-28T18:15:12.656Z,0.87
2023-01-28T18:17:40.738Z,1.00
2023-01-28T18:20:09.510Z,0.80
2023-01-28T18:22:37.401Z,0.90
2023-01-28T18:25:05.895Z,0.80
2023-01-28T18:27:33.771Z,0.90
2023-01-28T18:30:03.091Z,0.90
2023-01-28T18:32:30.968Z,0.90
2023-01-28T18:34:58.899Z,1.00
2023-01-28T18:37:26.797Z,1.00
2023-01-28T18:39:54.661Z,1.00
2023-01-28T18:42:22.526Z,1.00
2023-01-28T18:44:50.610Z,0.93
2023-01-28T18:47:19.840Z,1.00
2023-01-28T18:49:47.750Z,0.80
2023-01-28T18:52:15.624Z,0.80
2023-01-28T18:54:43.473Z,1.00
2023-01-28T18:57:11.360Z,0.90
2023-01-28T18:59:39.224Z,1.00
2023-01-28T19:02:07.142Z,0.80
2023-01-28T19:04:36.400Z,0.87
2023-01-28T19:07:05.897Z,0.90
2023-01-28T19:09:35.046Z,0.90
2023-01-28T19:12:03.011Z,0.80
2023-01-28T19:14:30.945Z,1.10
2023-01-28T19:16:58.874Z,0.80
2023-01-28T19:19:26.974Z,1.00
2023-01-28T19:21:56.178Z,0.93
2023-01-28T19:24:24.099Z,1.00
2023-01-28T19:26:52.036Z,0.83
2023-01-28T19:29:20.011Z,0.87
2023-01-28T19:31:49.435Z,1.00
2023-01-28T19:34:17.461Z,1.00
2023-01-28T19:36:45.520Z,1.00
2023-01-28T19:39:14.837Z,1.00
2023-01-28T19:41:42.708Z,0.90
2023-01-28T19:44:10.842Z,0.83
2023-01-28T19:46:41.065Z,0.90
2023-01-28T19:49:10.540Z,0.80
2023-01-28T19:51:38.479Z,0.87
2023-01-28T19:54:06.481Z,0.93
2023-01-28T19:56:37.479Z,0.80
2023-01-28T19:59:05.533Z,1.00
2023-01-28T20:01:33.457Z,0.80
2023-01-28T20:04:01.447Z,0.87
2023-01-28T20:06:30.300Z,0.90
2023-01-28T20:09:01.137Z,0.73
2023-01-28T20:11:29.035Z,0.90
2023-01-28T20:13:59.681Z,0.80
2023-01-28T20:16:28.459Z,0.90
2023-01-28T20:18:57.055Z,0.70
2023-01-28T20:21:25.141Z,0.80
2023-01-28T20:23:54.148Z,0.80
2023-01-28T20:26:23.375Z,0.80
2023-01-28T20:28:51.645Z,0.70
2023-01-28T20:31:21.164Z,0.90
2023-01-28T20:33:49.113Z,0.87
2023-01-28T20:36:17.028Z,1.20
2023-01-28T20:38:45.700Z,0.90
2023-01-28T20:41:14.402Z,0.90
2023-01-28T20:43:43.122Z,0.80
2023-01-28T20:46:12.318Z,0.80
2023-01-28T20:48:41.578Z,0.93
2023-01-28T20:51:09.856Z,0.70
2023-01-28T20:53:37.838Z,0.70
2023-01-28T20:56:06.383Z,0.80
2023-01-28T20:58:34.340Z,0.90
2023-01-28T21:01:02.254Z,0.87
2023-01-28T21:03:30.115Z,0.80
2023-01-28T21:05:59.352Z,0.80
2023-01-28T21:08:27.209Z,1.00
2023-01-28T21:10:55.132Z,1.00
2023-01-28T21:13:23.074Z,1.10
2023-01-28T21:15:54.787Z,0.90
2023-01-28T21:18:22.758Z,0.90
2023-01-28T21:20:50.688Z,1.00
2023-01-28T21:23:20.007Z,1.03
2023-01-28T21:25:49.971Z,0.80
2023-01-28T21:28:17.888Z,0.83
2023-01-28T21:30:45.984Z,0.90
2023-01-28T21:33:13.936Z,1.10
2023-01-28T21:35:43.374Z,1.00
2023-01-28T21:38:11.415Z,1.10
2023-01-28T21:40:40.681Z,1.00
2023-01-28T21:43:08.539Z,1.17
2023-01-28T21:45:36.444Z,0.90
2023-01-28T21:48:04.359Z,1.00
2023-01-28T21:50:52.226Z,1.00
2023-01-28T21:53:20.123Z,1.07
2023-01-28T21:55:49.486Z,1.10
2023-01-28T21:58:31.287Z,1.00
2023-01-28T22:00:59.194Z,0.83
2023-01-28T22:03:31.150Z,0.90
2023-01-28T22:05:59.020Z,1.07
2023-01-28T22:08:26.893Z,1.00
2023-01-28T22:10:56.706Z,0.93
2023-01-28T22:13:24.630Z,1.10
2023-01-28T22:15:52.520Z,1.10
2023-01-28T22:18:20.422Z,1.00
2023-01-28T22:20:48.672Z,0.90
2023-01-28T22:23:16.655Z,1.10
2023-01-28T22:25:44.530Z,0.80
2023-01-28T22:28:13.759Z,0.90
2023-01-28T22:30:41.883Z,1.10
2023-01-28T22:33:09.772Z,0.90
2023-01-28T22:35:37.640Z,1.10
2023-01-28T22:38:05.511Z,1.00
2023-01-28T22:40:33.453Z,1.00
2023-01-28T22:43:01.381Z,0.93
2023-01-28T22:45:30.617Z,1.10
2023-01-28T22:47:58.497Z,1.00
2023-01-28T22:50:26.388Z,1.00
2023-01-28T22:52:54.319Z,1.10
2023-01-28T22:55:23.989Z,0.97
2023-01-28T22:57:52.442Z,1.20
2023-01-28T23:00:21.137Z,1.10
2023-01-28T23:02:50.378Z,0.90
2023-01-28T23:05:18.254Z,1.00
2023-01-28T23:07:46.159Z,0.90
2023-01-28T23:10:14.450Z,1.10
2023-01-28T23:12:42.579Z,0.80
2023-01-28T23:15:28.442Z,0.80
2023-01-28T23:18:15.367Z,1.00
2023-01-28T23:21:00.922Z,1.00
2023-01-28T23:23:46.554Z,1.00
2023-01-28T23:26:14.409Z,0.97
2023-01-28T23:28:42.282Z,0.90
2023-01-28T23:31:10.299Z,0.90
2023-01-28T23:33:39.558Z,1.00
2023-01-28T23:36:07.642Z,0.90
2023-01-28T23:38:35.543Z,1.00
2023-01-28T23:41:03.448Z,1.00
2023-01-28T23:43:31.297Z,1.00
2023-01-28T23:45:59.204Z,0.87
2023-01-28T23:48:27.052Z,1.00
2023-01-28T23:50:56.858Z,0.90
2023-01-28T23:53:24.817Z,1.00
2023-01-28T23:55:52.767Z,1.00
2023-01-28T23:58:40.989Z,1.10
